Hammondsville, Vermont
Current Conditions -  °F | °C
As of 6:54 AM on Monday 22 Dec 2014 (Local Time) from KVSF Reporting Station
Haze Haze  
Wind Chill: -2°   Ceiling: 2000
Heat Index: -2°   Visibility: 5mi
Dew Point: -3°   Wind: 0mph
Humidity: 92%   Direction: NA
Pressure: 30.37"   Gusts: NA
Location:  43.4984°N, 72.5943°W
Report Text: KVSF 221154Z AUTO 00000KT 5SM BR FEW014 OVC020 M02/M03 A3037 RMK AO2 SLP293 60000 70002 T10221033 11017 21022 51005 TSNO
Loading
Personal Weather Stations






























Interactive Weather Map New forecast layout! Learn more

10-Day Weather Forecast

Advertisements
Track Severe Weather on mobile